createdAt,value
2022-12-11T00:00:51.798Z,3.60
2022-12-11T00:03:19.418Z,3.60
2022-12-11T00:05:46.810Z,3.60
2022-12-11T00:08:14.257Z,3.60
2022-12-11T00:10:49.364Z,3.60
2022-12-11T00:13:16.293Z,3.60
2022-12-11T00:15:43.195Z,3.60
2022-12-11T00:18:13.156Z,3.60
2022-12-11T00:20:40.082Z,3.50
2022-12-11T00:23:06.952Z,3.50
2022-12-11T00:25:33.867Z,3.50
2022-12-11T00:28:00.729Z,3.50
2022-12-11T00:30:27.570Z,3.50
2022-12-11T00:32:54.481Z,3.50
2022-12-11T00:35:21.571Z,3.50
2022-12-11T00:37:48.425Z,3.50
2022-12-11T00:40:15.401Z,3.40
2022-12-11T00:42:42.310Z,3.40
2022-12-11T00:45:10.427Z,3.40
2022-12-11T00:47:37.478Z,3.40
2022-12-11T00:50:04.771Z,3.40
2022-12-11T00:52:31.688Z,3.40
2022-12-11T00:54:58.577Z,3.40
2022-12-11T00:57:25.450Z,3.40
2022-12-11T00:59:52.353Z,3.40
2022-12-11T01:02:19.234Z,3.40
2022-12-11T01:04:46.088Z,3.40
2022-12-11T01:07:12.968Z,3.40
2022-12-11T01:09:58.502Z,3.40
2022-12-11T01:12:26.906Z,3.40
2022-12-11T01:14:53.773Z,3.40
2022-12-11T01:17:20.692Z,3.40
2022-12-11T01:19:47.855Z,3.40
2022-12-11T01:22:14.738Z,3.40
2022-12-11T01:24:41.595Z,3.40
2022-12-11T01:27:08.722Z,3.50
2022-12-11T01:29:35.664Z,3.50
2022-12-11T01:32:02.609Z,3.40
2022-12-11T01:34:30.676Z,3.40
2022-12-11T01:36:57.861Z,3.50
2022-12-11T01:39:24.773Z,3.50
2022-12-11T01:41:56.541Z,3.50
2022-12-11T01:44:23.417Z,3.50
2022-12-11T01:46:50.427Z,3.50
2022-12-11T01:49:19.009Z,3.50
2022-12-11T01:51:57.731Z,3.40
2022-12-11T01:54:27.177Z,3.40
2022-12-11T01:56:57.668Z,3.40
2022-12-11T01:59:27.928Z,3.30
2022-12-11T02:02:00.835Z,3.30
2022-12-11T02:04:29.020Z,3.30
2022-12-11T02:06:56.181Z,3.30
2022-12-11T02:09:27.095Z,3.30
2022-12-11T02:12:13.097Z,3.30
2022-12-11T02:15:04.602Z,3.30
2022-12-11T02:18:15.070Z,3.30
2022-12-11T02:20:47.637Z,3.30
2022-12-11T02:24:01.590Z,3.20
2022-12-11T02:26:43.093Z,3.20
2022-12-11T02:29:17.079Z,3.20
2022-12-11T02:32:09.386Z,3.20
2022-12-11T02:34:45.033Z,3.20
2022-12-11T02:37:17.091Z,3.20
2022-12-11T02:39:46.494Z,3.20
2022-12-11T02:42:15.854Z,3.20
2022-12-11T02:44:44.800Z,3.20
2022-12-11T02:47:14.107Z,3.20
2022-12-11T02:49:44.109Z,3.10
2022-12-11T02:52:14.846Z,3.20
2022-12-11T02:54:44.865Z,3.10
2022-12-11T02:57:21.921Z,3.20
2022-12-11T02:59:48.786Z,3.20
2022-12-11T03:02:17.292Z,3.10
2022-12-11T03:04:45.300Z,3.10
2022-12-11T03:07:23.674Z,3.10
2022-12-11T03:09:51.039Z,3.10
2022-12-11T03:12:25.642Z,3.10
2022-12-11T03:14:52.545Z,3.10
2022-12-11T03:17:23.030Z,3.10
2022-12-11T03:20:00.613Z,3.00
2022-12-11T03:22:37.487Z,3.10
2022-12-11T03:25:16.079Z,3.10
2022-12-11T03:27:49.412Z,3.10
2022-12-11T03:30:23.122Z,3.10
2022-12-11T03:32:57.048Z,3.10
2022-12-11T03:35:29.356Z,3.10
2022-12-11T03:37:58.096Z,3.10
2022-12-11T03:40:28.045Z,3.10
2022-12-11T03:42:56.669Z,3.10
2022-12-11T03:45:26.375Z,3.00
2022-12-11T03:47:55.246Z,3.00
2022-12-11T03:50:23.581Z,3.00
2022-12-11T03:52:51.419Z,3.00
2022-12-11T03:55:21.200Z,3.00
2022-12-11T03:57:48.655Z,3.00
2022-12-11T04:00:20.479Z,3.00
2022-12-11T04:03:12.885Z,3.00
2022-12-11T04:05:41.989Z,2.90
2022-12-11T04:08:09.017Z,3.00
2022-12-11T04:10:36.029Z,3.00
2022-12-11T04:13:03.228Z,3.00
2022-12-11T04:15:30.177Z,2.90
2022-12-11T04:18:15.441Z,2.90
2022-12-11T04:21:00.890Z,2.90
2022-12-11T04:23:46.502Z,2.90
2022-12-11T04:26:17.524Z,2.90
2022-12-11T04:28:45.796Z,2.90
2022-12-11T04:31:14.529Z,2.90
2022-12-11T04:33:42.493Z,2.90
2022-12-11T04:36:10.714Z,2.90
2022-12-11T04:38:37.869Z,2.90
2022-12-11T04:41:10.383Z,2.90
2022-12-11T04:43:37.618Z,2.90
2022-12-11T04:46:13.371Z,3.00
2022-12-11T04:48:40.821Z,2.90
2022-12-11T04:51:09.079Z,2.90
2022-12-11T04:53:36.274Z,2.90
2022-12-11T04:56:09.685Z,2.90
2022-12-11T04:58:37.223Z,2.90
2022-12-11T05:01:12.408Z,2.90
2022-12-11T05:03:40.638Z,2.90
2022-12-11T05:06:09.078Z,2.90
2022-12-11T05:08:37.859Z,2.90
2022-12-11T05:11:07.825Z,2.90
2022-12-11T05:13:34.741Z,2.90
2022-12-11T05:16:07.864Z,2.80
2022-12-11T05:18:35.194Z,2.80
2022-12-11T05:21:07.947Z,2.80
2022-12-11T05:23:35.439Z,2.80
2022-12-11T05:26:05.573Z,2.80
2022-12-11T05:28:34.957Z,2.80
2022-12-11T05:31:08.019Z,2.80
2022-12-11T05:33:35.355Z,2.80
2022-12-11T05:36:02.623Z,2.80
2022-12-11T05:38:29.618Z,2.80
2022-12-11T05:41:01.565Z,2.80
2022-12-11T05:43:30.632Z,2.80
2022-12-11T05:46:06.583Z,2.70
2022-12-11T05:48:33.730Z,2.70
2022-12-11T05:51:02.051Z,2.70
2022-12-11T05:53:29.880Z,2.80
2022-12-11T05:56:05.756Z,2.70
2022-12-11T05:58:33.440Z,2.80
2022-12-11T06:01:00.636Z,2.80
2022-12-11T06:03:27.863Z,2.80
2022-12-11T06:05:54.789Z,2.80
2022-12-11T06:08:21.731Z,2.80
2022-12-11T06:10:50.285Z,2.80
2022-12-11T06:13:17.539Z,2.80
2022-12-11T06:15:44.499Z,2.90
2022-12-11T06:18:11.485Z,2.90
2022-12-11T06:20:38.441Z,2.90
2022-12-11T06:23:05.568Z,2.90
2022-12-11T06:25:32.482Z,2.80
2022-12-11T06:27:59.622Z,2.80
2022-12-11T06:30:38.422Z,2.80
2022-12-11T06:33:06.757Z,2.70
2022-12-11T06:35:38.744Z,2.70
2022-12-11T06:38:08.903Z,2.70
2022-12-11T06:40:35.855Z,2.70
2022-12-11T06:43:03.643Z,2.70
2022-12-11T06:45:30.965Z,2.70
2022-12-11T06:47:58.792Z,2.70
2022-12-11T06:50:25.989Z,2.70
2022-12-11T06:52:52.874Z,2.70
2022-12-11T06:55:19.759Z,2.70
2022-12-11T06:57:46.679Z,2.70
2022-12-11T07:00:14.442Z,2.70
2022-12-11T07:02:41.334Z,2.60
2022-12-11T07:05:08.803Z,2.60
2022-12-11T07:07:35.975Z,2.60
2022-12-11T07:10:08.040Z,2.60
2022-12-11T07:12:35.801Z,2.60
2022-12-11T07:15:02.991Z,2.50
2022-12-11T07:17:30.325Z,2.60
2022-12-11T07:19:57.433Z,2.50
2022-12-11T07:22:24.665Z,2.50
2022-12-11T07:24:51.522Z,2.50
2022-12-11T07:27:18.372Z,2.50
2022-12-11T07:29:45.256Z,2.50
2022-12-11T07:32:12.282Z,2.50
2022-12-11T07:34:39.289Z,2.50
2022-12-11T07:37:06.187Z,2.50
2022-12-11T07:39:33.315Z,2.50
2022-12-11T07:42:00.345Z,2.50
2022-12-11T07:44:27.258Z,2.50
2022-12-11T07:46:54.126Z,2.50
2022-12-11T07:49:21.192Z,2.40
2022-12-11T07:51:48.092Z,2.40
2022-12-11T07:54:17.052Z,2.40
2022-12-11T07:56:51.203Z,2.40
2022-12-11T07:59:21.199Z,2.40
2022-12-11T08:01:48.152Z,2.50
2022-12-11T08:04:15.971Z,2.40
2022-12-11T08:06:43.438Z,2.50
2022-12-11T08:09:18.924Z,2.50
2022-12-11T08:11:50.594Z,2.50
2022-12-11T08:14:18.129Z,2.50
2022-12-11T08:16:45.171Z,2.50
2022-12-11T08:19:12.846Z,2.50
2022-12-11T08:21:40.354Z,2.50
2022-12-11T08:24:08.239Z,2.50
2022-12-11T08:26:35.278Z,2.50
2022-12-11T08:29:03.060Z,2.50
2022-12-11T08:31:35.568Z,2.50
2022-12-11T08:34:02.519Z,2.50
2022-12-11T08:36:29.486Z,2.50
2022-12-11T08:38:57.075Z,2.50
2022-12-11T08:41:26.809Z,2.60
2022-12-11T08:43:55.239Z,2.60
2022-12-11T08:46:24.822Z,2.60
2022-12-11T08:48:51.909Z,2.60
2022-12-11T08:51:22.892Z,2.60
2022-12-11T08:53:51.404Z,2.60
2022-12-11T08:56:21.664Z,2.60
2022-12-11T08:58:48.965Z,2.60
2022-12-11T09:01:19.221Z,2.60
2022-12-11T09:03:46.164Z,2.60
2022-12-11T09:06:16.262Z,2.60
2022-12-11T09:08:50.397Z,2.60
2022-12-11T09:11:31.555Z,2.60
2022-12-11T09:14:03.557Z,2.60
2022-12-11T09:16:32.739Z,2.60
2022-12-11T09:19:00.574Z,2.70
2022-12-11T09:21:29.784Z,2.70
2022-12-11T09:23:59.182Z,2.70
2022-12-11T09:26:27.558Z,2.70
2022-12-11T09:28:55.060Z,2.70
2022-12-11T09:31:30.427Z,2.70
2022-12-11T09:34:06.045Z,2.70
2022-12-11T09:36:33.732Z,2.70
2022-12-11T09:39:02.394Z,2.60
2022-12-11T09:41:37.915Z,2.60
2022-12-11T09:44:19.591Z,2.60
2022-12-11T09:46:47.644Z,2.60
2022-12-11T09:49:42.665Z,2.60
2022-12-11T09:52:47.674Z,2.70
2022-12-11T09:55:25.639Z,2.60
2022-12-11T09:58:06.552Z,2.70
2022-12-11T10:00:33.355Z,2.70
2022-12-11T10:03:02.988Z,2.70
2022-12-11T10:05:48.486Z,2.70
2022-12-11T10:08:27.736Z,2.70
2022-12-11T10:11:22.932Z,2.70
2022-12-11T10:14:08.830Z,2.80
2022-12-11T10:16:47.365Z,2.80
2022-12-11T10:19:28.051Z,2.80
2022-12-11T10:21:55.804Z,2.70
2022-12-11T10:25:10.072Z,2.70
2022-12-11T10:27:33.644Z,2.70
2022-12-11T10:30:23.411Z,2.70
2022-12-11T10:33:12.016Z,2.80
2022-12-11T10:35:54.073Z,2.80
2022-12-11T10:38:28.420Z,2.80
2022-12-11T10:41:01.626Z,2.70
2022-12-11T10:43:40.301Z,2.80
2022-12-11T10:46:19.464Z,2.80
2022-12-11T10:48:53.767Z,2.90
2022-12-11T10:51:25.707Z,2.90
2022-12-11T10:53:56.032Z,2.80
2022-12-11T10:56:30.647Z,2.80
2022-12-11T10:58:59.027Z,2.80
2022-12-11T11:01:28.987Z,2.80
2022-12-11T11:04:15.545Z,2.90
2022-12-11T11:06:42.341Z,2.80
2022-12-11T11:09:29.347Z,2.90
2022-12-11T11:11:56.251Z,2.90
2022-12-11T11:14:24.250Z,2.90
2022-12-11T11:16:55.076Z,3.00
2022-12-11T11:19:23.680Z,3.00
2022-12-11T11:21:54.103Z,2.90
2022-12-11T11:24:57.727Z,3.00
2022-12-11T11:27:24.581Z,3.00
2022-12-11T11:30:16.830Z,3.10
2022-12-11T11:32:43.972Z,3.10
2022-12-11T11:35:11.874Z,3.10
2022-12-11T11:37:41.485Z,3.20
2022-12-11T11:40:24.783Z,3.20
2022-12-11T11:43:16.505Z,3.20
2022-12-11T11:45:57.845Z,3.20
2022-12-11T11:48:49.438Z,3.20
2022-12-11T11:51:29.254Z,3.20
2022-12-11T11:54:00.183Z,3.20
2022-12-11T11:56:36.525Z,3.30
2022-12-11T11:59:11.701Z,3.30
2022-12-11T12:01:41.109Z,3.30
2022-12-11T12:04:08.149Z,3.20
2022-12-11T12:07:00.870Z,3.30
2022-12-11T12:09:39.619Z,3.30
2022-12-11T12:12:46.345Z,3.30
2022-12-11T12:15:21.990Z,3.30
2022-12-11T12:18:18.705Z,3.40
2022-12-11T12:21:12.757Z,3.40
2022-12-11T12:24:02.707Z,3.50
2022-12-11T12:26:33.016Z,3.40
2022-12-11T12:29:24.283Z,3.50
2022-12-11T12:32:15.140Z,3.50
2022-12-11T12:35:09.542Z,3.50
2022-12-11T12:38:15.711Z,3.50
2022-12-11T12:41:04.130Z,3.50
2022-12-11T12:43:31.013Z,3.50
2022-12-11T12:46:29.367Z,3.50
2022-12-11T12:48:59.107Z,3.40
2022-12-11T12:51:27.160Z,3.40
2022-12-11T12:53:58.020Z,3.40
2022-12-11T12:56:26.384Z,3.40
2022-12-11T12:58:53.323Z,3.30
2022-12-11T13:01:25.987Z,3.40
2022-12-11T13:04:04.045Z,3.40
2022-12-11T13:06:44.228Z,3.40
2022-12-11T13:09:17.464Z,3.40
2022-12-11T13:11:45.935Z,3.30
2022-12-11T13:14:15.804Z,3.30
2022-12-11T13:16:48.190Z,3.30
2022-12-11T13:19:24.175Z,3.30
2022-12-11T13:22:13.014Z,3.40
2022-12-11T13:24:51.946Z,3.40
2022-12-11T13:27:43.732Z,3.40
2022-12-11T13:30:23.883Z,3.40
2022-12-11T13:33:07.532Z,3.40
2022-12-11T13:35:35.557Z,3.50
2022-12-11T13:38:17.355Z,3.50
2022-12-11T13:40:45.830Z,3.50
2022-12-11T13:43:25.899Z,3.50
2022-12-11T13:45:57.514Z,3.50
2022-12-11T13:48:33.844Z,3.50
2022-12-11T13:51:02.757Z,3.50
2022-12-11T13:53:29.785Z,3.50
2022-12-11T13:55:59.280Z,3.50
2022-12-11T13:58:27.288Z,3.50
2022-12-11T14:01:08.728Z,3.60
2022-12-11T14:03:36.099Z,3.60
2022-12-11T14:06:04.340Z,3.60
2022-12-11T14:08:36.131Z,3.60
2022-12-11T14:11:04.199Z,3.60
2022-12-11T14:13:37.601Z,3.60
2022-12-11T14:16:06.338Z,3.60
2022-12-11T14:18:35.741Z,3.60
2022-12-11T14:21:05.812Z,3.60
2022-12-11T14:23:35.475Z,3.60
2022-12-11T14:26:15.446Z,3.60
2022-12-11T14:28:43.278Z,3.60
2022-12-11T14:31:16.214Z,3.60
2022-12-11T14:33:51.880Z,3.60
2022-12-11T14:36:19.471Z,3.60
2022-12-11T14:39:13.348Z,3.60
2022-12-11T14:41:48.143Z,3.60
2022-12-11T14:44:17.935Z,3.70
2022-12-11T14:46:54.579Z,3.70
2022-12-11T14:49:52.068Z,3.70
2022-12-11T14:52:25.503Z,3.70
2022-12-11T14:55:01.603Z,3.70
2022-12-11T14:57:30.795Z,3.70
2022-12-11T14:59:58.448Z,3.70
2022-12-11T15:02:32.785Z,3.70
2022-12-11T15:05:14.867Z,3.70
2022-12-11T15:07:44.017Z,3.70
2022-12-11T15:10:31.568Z,3.70
2022-12-11T15:12:59.309Z,3.70
2022-12-11T15:15:28.041Z,3.70
2022-12-11T15:17:55.052Z,3.70
2022-12-11T15:20:25.856Z,3.70
2022-12-11T15:22:54.009Z,3.70
2022-12-11T15:25:23.574Z,3.70
2022-12-11T15:27:53.227Z,3.70
2022-12-11T15:30:21.946Z,3.70
2022-12-11T15:32:48.837Z,3.70
2022-12-11T15:35:25.216Z,3.70
2022-12-11T15:37:57.639Z,3.70
2022-12-11T15:40:25.255Z,3.70
2022-12-11T15:42:52.702Z,3.80
2022-12-11T15:45:26.083Z,3.70
2022-12-11T15:47:52.993Z,3.70
2022-12-11T15:50:26.773Z,3.70
2022-12-11T15:52:55.218Z,3.70
2022-12-11T15:55:23.525Z,3.70
2022-12-11T15:57:55.314Z,3.60
2022-12-11T16:00:24.105Z,3.60
2022-12-11T16:02:52.185Z,3.60
2022-12-11T16:05:19.448Z,3.60
2022-12-11T16:07:46.383Z,3.60
2022-12-11T16:10:16.523Z,3.50
2022-12-11T16:12:43.737Z,3.50
2022-12-11T16:15:15.281Z,3.50
2022-12-11T16:17:44.719Z,3.50
2022-12-11T16:20:13.495Z,3.50
2022-12-11T16:22:40.830Z,3.50
2022-12-11T16:25:08.467Z,3.40
2022-12-11T16:27:35.475Z,3.50
2022-12-11T16:30:02.599Z,3.40
2022-12-11T16:32:29.704Z,3.40
2022-12-11T16:35:00.826Z,3.40
2022-12-11T16:37:28.063Z,3.40
2022-12-11T16:39:55.016Z,3.40
2022-12-11T16:42:21.952Z,3.40
2022-12-11T16:44:49.190Z,3.40
2022-12-11T16:47:16.165Z,3.40
2022-12-11T16:49:46.136Z,3.40
2022-12-11T16:52:16.421Z,3.40
2022-12-11T16:54:47.932Z,3.40
2022-12-11T16:57:14.956Z,3.30
2022-12-11T16:59:43.475Z,3.30
2022-12-11T17:02:11.688Z,3.30
2022-12-11T17:04:39.134Z,3.30
2022-12-11T17:07:06.569Z,3.30
2022-12-11T17:09:34.136Z,3.30
2022-12-11T17:12:01.406Z,3.20
2022-12-11T17:14:28.433Z,3.20
2022-12-11T17:16:56.765Z,3.20
2022-12-11T17:19:24.387Z,3.10
2022-12-11T17:21:51.912Z,3.20
2022-12-11T17:24:19.038Z,3.20
2022-12-11T17:26:46.479Z,3.20
2022-12-11T17:29:13.876Z,3.20
2022-12-11T17:31:41.189Z,3.10
2022-12-11T17:34:08.432Z,3.10
2022-12-11T17:36:35.351Z,3.00
2022-12-11T17:39:02.255Z,3.00
2022-12-11T17:41:29.171Z,2.90
2022-12-11T17:43:56.397Z,3.00
2022-12-11T17:46:23.697Z,2.90
2022-12-11T17:48:50.744Z,2.90
2022-12-11T17:51:24.094Z,2.90
2022-12-11T17:53:51.831Z,2.90
2022-12-11T17:56:18.823Z,2.90
2022-12-11T17:58:45.706Z,2.90
2022-12-11T18:01:13.329Z,2.90
2022-12-11T18:03:41.169Z,2.90
2022-12-11T18:06:11.106Z,2.90
2022-12-11T18:08:38.899Z,2.90
2022-12-11T18:11:11.596Z,2.80
2022-12-11T18:13:38.783Z,2.80
2022-12-11T18:16:13.545Z,2.80
2022-12-11T18:18:40.846Z,2.70
2022-12-11T18:21:07.814Z,2.70
2022-12-11T18:23:35.255Z,2.70
2022-12-11T18:26:02.146Z,2.70
2022-12-11T18:28:31.857Z,2.60
2022-12-11T18:31:02.518Z,2.60
2022-12-11T18:33:30.954Z,2.60
2022-12-11T18:35:57.885Z,2.60
2022-12-11T18:38:24.762Z,2.60
2022-12-11T18:40:51.694Z,2.60
2022-12-11T18:43:18.626Z,2.60
2022-12-11T18:45:45.714Z,2.60
2022-12-11T18:48:13.809Z,2.60
2022-12-11T18:50:51.963Z,2.50
2022-12-11T18:53:19.680Z,2.50
2022-12-11T18:55:48.271Z,2.50
2022-12-11T18:58:18.096Z,2.50
2022-12-11T19:00:45.432Z,2.50
2022-12-11T19:03:14.201Z,2.50
2022-12-11T19:05:43.833Z,2.50
2022-12-11T19:08:12.669Z,2.50
2022-12-11T19:10:47.192Z,2.30
2022-12-11T19:13:14.735Z,2.40
2022-12-11T19:15:42.940Z,2.40
2022-12-11T19:18:10.694Z,2.40
2022-12-11T19:20:57.674Z,2.30
2022-12-11T19:23:30.072Z,2.30
2022-12-11T19:25:57.004Z,2.40
2022-12-11T19:28:23.884Z,2.30
2022-12-11T19:30:50.917Z,2.30
2022-12-11T19:33:17.940Z,2.40
2022-12-11T19:35:45.124Z,2.40
2022-12-11T19:38:13.044Z,2.40
2022-12-11T19:40:44.573Z,2.40
2022-12-11T19:43:11.610Z,2.40
2022-12-11T19:45:38.672Z,2.40
2022-12-11T19:48:06.052Z,2.40
2022-12-11T19:50:35.568Z,2.40
2022-12-11T19:53:02.438Z,2.40
2022-12-11T19:55:29.426Z,2.40
2022-12-11T19:57:56.434Z,2.40
2022-12-11T20:00:24.713Z,2.40
2022-12-11T20:02:51.895Z,2.30
2022-12-11T20:05:18.925Z,2.40
2022-12-11T20:07:45.928Z,2.40
2022-12-11T20:10:13.341Z,2.40
2022-12-11T20:12:40.476Z,2.40
2022-12-11T20:15:07.845Z,2.50
2022-12-11T20:17:36.847Z,2.40
2022-12-11T20:20:04.250Z,2.40
2022-12-11T20:22:31.143Z,2.40
2022-12-11T20:24:58.039Z,2.30
2022-12-11T20:27:26.242Z,2.30
2022-12-11T20:29:53.242Z,2.20
2022-12-11T20:32:20.106Z,2.20
2022-12-11T20:34:47.033Z,2.30
2022-12-11T20:37:13.941Z,2.20
2022-12-11T20:39:40.832Z,2.20
2022-12-11T20:42:09.751Z,2.30
2022-12-11T20:44:36.701Z,2.20
2022-12-11T20:47:03.791Z,2.30
2022-12-11T20:49:30.677Z,2.30
2022-12-11T20:51:57.605Z,2.30
2022-12-11T20:54:24.519Z,2.30
2022-12-11T20:56:51.825Z,2.30
2022-12-11T20:59:18.876Z,2.30
2022-12-11T21:01:46.022Z,2.30
2022-12-11T21:04:13.013Z,2.30
2022-12-11T21:06:41.043Z,2.30
2022-12-11T21:09:12.528Z,2.30
2022-12-11T21:11:39.860Z,2.20
2022-12-11T21:14:07.141Z,2.20
2022-12-11T21:16:36.514Z,2.20
2022-12-11T21:19:04.418Z,2.20
2022-12-11T21:21:36.986Z,2.20
2022-12-11T21:24:04.279Z,2.20
2022-12-11T21:26:31.155Z,2.20
2022-12-11T21:28:58.045Z,2.30
2022-12-11T21:31:25.263Z,2.30
2022-12-11T21:33:52.161Z,2.20
2022-12-11T21:36:19.130Z,2.20
2022-12-11T21:38:46.794Z,2.20
2022-12-11T21:41:19.955Z,2.20
2022-12-11T21:46:35.988Z,2.10
2022-12-11T21:49:03.248Z,2.00
2022-12-11T21:51:37.749Z,2.00
2022-12-11T21:54:09.286Z,2.10
2022-12-11T21:56:36.496Z,2.10
2022-12-11T21:59:03.515Z,2.10
2022-12-11T22:01:35.104Z,2.00
2022-12-11T22:04:02.455Z,2.10
2022-12-11T22:06:29.374Z,2.10
2022-12-11T22:08:56.554Z,2.10
2022-12-11T22:11:27.559Z,2.10
2022-12-11T22:13:54.973Z,2.10
2022-12-11T22:16:22.238Z,2.10
2022-12-11T22:18:49.149Z,2.10
2022-12-11T22:21:16.800Z,2.10
2022-12-11T22:23:44.741Z,2.20
2022-12-11T22:26:18.005Z,2.20
2022-12-11T22:28:44.984Z,2.30
2022-12-11T22:31:17.959Z,2.30
2022-12-11T22:33:45.043Z,2.20
2022-12-11T22:36:12.056Z,2.20
2022-12-11T22:38:39.859Z,2.30
2022-12-11T22:41:23.673Z,2.30
2022-12-11T22:43:51.084Z,2.30
2022-12-11T22:46:19.500Z,2.30
2022-12-11T22:48:46.568Z,2.20
2022-12-11T22:51:14.008Z,2.20
2022-12-11T22:53:40.897Z,2.20
2022-12-11T22:56:09.936Z,2.20
2022-12-11T22:58:37.306Z,2.20
2022-12-11T23:01:08.573Z,2.20
2022-12-11T23:03:35.505Z,2.20
2022-12-11T23:06:06.908Z,2.20
2022-12-11T23:08:34.167Z,2.10
2022-12-11T23:11:01.401Z,2.10
2022-12-11T23:13:28.304Z,2.10
2022-12-11T23:15:55.184Z,2.10
2022-12-11T23:18:22.061Z,2.10
2022-12-11T23:20:50.009Z,2.10
2022-12-11T23:23:17.213Z,2.10
2022-12-11T23:25:44.170Z,2.10
2022-12-11T23:28:11.043Z,2.10
2022-12-11T23:30:38.089Z,2.10
2022-12-11T23:33:06.698Z,2.20
2022-12-11T23:35:33.770Z,2.20
2022-12-11T23:38:00.775Z,2.20
2022-12-11T23:40:27.751Z,2.10
2022-12-11T23:42:54.661Z,2.20
2022-12-11T23:45:21.532Z,2.10
2022-12-11T23:47:48.587Z,2.10
2022-12-11T23:50:16.013Z,2.10
2022-12-11T23:52:42.917Z,2.10
2022-12-11T23:55:10.823Z,2.10
2022-12-11T23:57:37.911Z,2.10
